sensor_id;sensor_type;location;lat;lon;timestamp;P1;durP1;ratioP1;P2;durP2;ratioP2
15240;SDS011;7723;52.170;9.978;2023-04-23T00:00:04;3.95;;;3.47;;
15240;SDS011;7723;52.170;9.978;2023-04-23T00:02:33;6.03;;;3.55;;
15240;SDS011;7723;52.170;9.978;2023-04-23T00:05:02;5.53;;;3.70;;
15240;SDS011;7723;52.170;9.978;2023-04-23T00:07:31;3.63;;;3.13;;
15240;SDS011;7723;52.170;9.978;2023-04-23T00:10:00;3.50;;;2.97;;
15240;SDS011;7723;52.170;9.978;2023-04-23T00:12:31;4.22;;;3.40;;
15240;SDS011;7723;52.170;9.978;2023-04-23T00:14:59;3.33;;;3.03;;
15240;SDS011;7723;52.170;9.978;2023-04-23T00:17:26;5.55;;;3.63;;
15240;SDS011;7723;52.170;9.978;2023-04-23T00:19:54;4.72;;;3.50;;
15240;SDS011;7723;52.170;9.978;2023-04-23T00:22:21;5.70;;;3.10;;
15240;SDS011;7723;52.170;9.978;2023-04-23T00:24:48;3.67;;;3.10;;
15240;SDS011;7723;52.170;9.978;2023-04-23T00:27:15;3.63;;;2.90;;
15240;SDS011;7723;52.170;9.978;2023-04-23T00:29:46;5.10;;;3.40;;
15240;SDS011;7723;52.170;9.978;2023-04-23T00:32:15;5.97;;;2.92;;
15240;SDS011;7723;52.170;9.978;2023-04-23T00:34:42;4.57;;;3.17;;
15240;SDS011;7723;52.170;9.978;2023-04-23T00:37:12;5.75;;;3.70;;
15240;SDS011;7723;52.170;9.978;2023-04-23T00:39:40;4.95;;;3.20;;
15240;SDS011;7723;52.170;9.978;2023-04-23T00:42:07;3.13;;;2.75;;
15240;SDS011;7723;52.170;9.978;2023-04-23T00:44:36;4.75;;;3.67;;
15240;SDS011;7723;52.170;9.978;2023-04-23T00:47:06;4.05;;;3.08;;
15240;SDS011;7723;52.170;9.978;2023-04-23T00:49:33;4.05;;;3.30;;
15240;SDS011;7723;52.170;9.978;2023-04-23T00:52:00;3.95;;;2.90;;
15240;SDS011;7723;52.170;9.978;2023-04-23T00:54:27;3.72;;;2.88;;
15240;SDS011;7723;52.170;9.978;2023-04-23T00:56:55;4.43;;;3.05;;
15240;SDS011;7723;52.170;9.978;2023-04-23T00:59:23;4.47;;;2.85;;
15240;SDS011;7723;52.170;9.978;2023-04-23T01:01:51;5.43;;;2.72;;
15240;SDS011;7723;52.170;9.978;2023-04-23T01:04:20;3.55;;;2.88;;
15240;SDS011;7723;52.170;9.978;2023-04-23T01:06:49;3.97;;;2.78;;
15240;SDS011;7723;52.170;9.978;2023-04-23T01:09:17;3.42;;;2.75;;
15240;SDS011;7723;52.170;9.978;2023-04-23T01:11:44;2.92;;;2.63;;
15240;SDS011;7723;52.170;9.978;2023-04-23T01:14:15;4.47;;;3.20;;
15240;SDS011;7723;52.170;9.978;2023-04-23T01:16:42;3.88;;;3.05;;
15240;SDS011;7723;52.170;9.978;2023-04-23T01:19:09;6.10;;;3.30;;
15240;SDS011;7723;52.170;9.978;2023-04-23T01:21:38;4.03;;;2.95;;
15240;SDS011;7723;52.170;9.978;2023-04-23T01:24:08;2.83;;;2.60;;
15240;SDS011;7723;52.170;9.978;2023-04-23T01:26:36;3.63;;;3.22;;
15240;SDS011;7723;52.170;9.978;2023-04-23T01:29:04;3.15;;;2.85;;
15240;SDS011;7723;52.170;9.978;2023-04-23T01:31:32;3.42;;;2.70;;
15240;SDS011;7723;52.170;9.978;2023-04-23T01:33:59;3.83;;;2.97;;
15240;SDS011;7723;52.170;9.978;2023-04-23T01:36:27;4.32;;;2.92;;
15240;SDS011;7723;52.170;9.978;2023-04-23T01:38:55;3.40;;;3.10;;
15240;SDS011;7723;52.170;9.978;2023-04-23T01:41:23;4.63;;;3.22;;
15240;SDS011;7723;52.170;9.978;2023-04-23T01:43:50;3.47;;;2.90;;
15240;SDS011;7723;52.170;9.978;2023-04-23T01:46:18;3.85;;;3.42;;
15240;SDS011;7723;52.170;9.978;2023-04-23T01:48:46;3.50;;;2.80;;
15240;SDS011;7723;52.170;9.978;2023-04-23T01:51:13;4.50;;;3.47;;
15240;SDS011;7723;52.170;9.978;2023-04-23T01:53:41;4.60;;;3.28;;
15240;SDS011;7723;52.170;9.978;2023-04-23T01:56:08;3.63;;;3.28;;
15240;SDS011;7723;52.170;9.978;2023-04-23T01:58:37;4.32;;;3.28;;
15240;SDS011;7723;52.170;9.978;2023-04-23T02:01:04;4.03;;;2.80;;
15240;SDS011;7723;52.170;9.978;2023-04-23T02:03:31;3.67;;;2.97;;
15240;SDS011;7723;52.170;9.978;2023-04-23T02:05:59;8.18;;;3.50;;
15240;SDS011;7723;52.170;9.978;2023-04-23T02:08:26;3.65;;;3.15;;
15240;SDS011;7723;52.170;9.978;2023-04-23T02:10:53;4.07;;;3.67;;
15240;SDS011;7723;52.170;9.978;2023-04-23T02:13:21;5.68;;;3.78;;
15240;SDS011;7723;52.170;9.978;2023-04-23T02:15:50;5.85;;;4.18;;
15240;SDS011;7723;52.170;9.978;2023-04-23T02:18:17;5.63;;;4.65;;
15240;SDS011;7723;52.170;9.978;2023-04-23T02:20:44;6.03;;;4.75;;
15240;SDS011;7723;52.170;9.978;2023-04-23T02:23:11;6.60;;;5.25;;
15240;SDS011;7723;52.170;9.978;2023-04-23T02:25:38;7.13;;;5.22;;
15240;SDS011;7723;52.170;9.978;2023-04-23T02:28:05;7.80;;;6.00;;
15240;SDS011;7723;52.170;9.978;2023-04-23T02:30:32;8.30;;;5.90;;
15240;SDS011;7723;52.170;9.978;2023-04-23T02:33:01;10.02;;;8.05;;
15240;SDS011;7723;52.170;9.978;2023-04-23T02:35:29;8.25;;;6.32;;
15240;SDS011;7723;52.170;9.978;2023-04-23T02:37:56;9.93;;;7.35;;
15240;SDS011;7723;52.170;9.978;2023-04-23T02:40:23;11.88;;;8.65;;
15240;SDS011;7723;52.170;9.978;2023-04-23T02:42:50;10.52;;;7.85;;
15240;SDS011;7723;52.170;9.978;2023-04-23T02:45:17;11.40;;;8.18;;
15240;SDS011;7723;52.170;9.978;2023-04-23T02:47:44;13.70;;;9.38;;
15240;SDS011;7723;52.170;9.978;2023-04-23T02:50:13;12.77;;;8.52;;
15240;SDS011;7723;52.170;9.978;2023-04-23T02:52:41;12.40;;;8.20;;
15240;SDS011;7723;52.170;9.978;2023-04-23T02:55:08;14.73;;;9.82;;
15240;SDS011;7723;52.170;9.978;2023-04-23T02:57:36;14.05;;;9.50;;
15240;SDS011;7723;52.170;9.978;2023-04-23T03:00:04;13.25;;;9.70;;
15240;SDS011;7723;52.170;9.978;2023-04-23T03:02:32;14.20;;;9.85;;
15240;SDS011;7723;52.170;9.978;2023-04-23T03:04:59;15.77;;;10.68;;
15240;SDS011;7723;52.170;9.978;2023-04-23T03:07:28;14.80;;;10.48;;
15240;SDS011;7723;52.170;9.978;2023-04-23T03:09:55;15.98;;;11.05;;
15240;SDS011;7723;52.170;9.978;2023-04-23T03:12:22;15.98;;;11.32;;
15240;SDS011;7723;52.170;9.978;2023-04-23T03:14:49;18.27;;;12.02;;
15240;SDS011;7723;52.170;9.978;2023-04-23T03:17:16;16.38;;;11.77;;
15240;SDS011;7723;52.170;9.978;2023-04-23T03:19:43;17.92;;;11.70;;
15240;SDS011;7723;52.170;9.978;2023-04-23T03:22:10;18.33;;;12.43;;
15240;SDS011;7723;52.170;9.978;2023-04-23T03:24:39;18.98;;;12.23;;
15240;SDS011;7723;52.170;9.978;2023-04-23T03:27:06;19.85;;;13.32;;
15240;SDS011;7723;52.170;9.978;2023-04-23T03:29:33;19.10;;;12.52;;
15240;SDS011;7723;52.170;9.978;2023-04-23T03:32:00;18.08;;;12.55;;
15240;SDS011;7723;52.170;9.978;2023-04-23T03:34:28;18.67;;;13.18;;
15240;SDS011;7723;52.170;9.978;2023-04-23T03:36:55;21.73;;;13.88;;
15240;SDS011;7723;52.170;9.978;2023-04-23T03:39:22;21.05;;;13.32;;
15240;SDS011;7723;52.170;9.978;2023-04-23T03:41:50;21.00;;;13.80;;
15240;SDS011;7723;52.170;9.978;2023-04-23T03:44:17;21.83;;;13.48;;
15240;SDS011;7723;52.170;9.978;2023-04-23T03:46:45;22.75;;;14.75;;
15240;SDS011;7723;52.170;9.978;2023-04-23T03:49:12;19.63;;;13.13;;
15240;SDS011;7723;52.170;9.978;2023-04-23T03:51:39;21.67;;;13.73;;
15240;SDS011;7723;52.170;9.978;2023-04-23T03:54:06;20.38;;;13.40;;
15240;SDS011;7723;52.170;9.978;2023-04-23T03:56:33;21.58;;;14.10;;
15240;SDS011;7723;52.170;9.978;2023-04-23T03:59:02;20.50;;;13.23;;
15240;SDS011;7723;52.170;9.978;2023-04-23T04:01:29;22.35;;;14.32;;
15240;SDS011;7723;52.170;9.978;2023-04-23T04:03:57;20.13;;;13.40;;
15240;SDS011;7723;52.170;9.978;2023-04-23T04:06:24;21.17;;;13.75;;
15240;SDS011;7723;52.170;9.978;2023-04-23T04:08:51;22.23;;;14.02;;
15240;SDS011;7723;52.170;9.978;2023-04-23T04:11:18;22.38;;;14.40;;
15240;SDS011;7723;52.170;9.978;2023-04-23T04:13:45;23.58;;;14.88;;
15240;SDS011;7723;52.170;9.978;2023-04-23T04:16:13;19.88;;;13.57;;
15240;SDS011;7723;52.170;9.978;2023-04-23T04:18:40;23.35;;;14.75;;
15240;SDS011;7723;52.170;9.978;2023-04-23T04:21:07;22.67;;;15.05;;
15240;SDS011;7723;52.170;9.978;2023-04-23T04:23:35;24.60;;;14.88;;
15240;SDS011;7723;52.170;9.978;2023-04-23T04:26:02;25.48;;;16.27;;
15240;SDS011;7723;52.170;9.978;2023-04-23T04:28:29;23.08;;;14.50;;
15240;SDS011;7723;52.170;9.978;2023-04-23T04:31:00;22.55;;;15.05;;
15240;SDS011;7723;52.170;9.978;2023-04-23T04:33:28;24.27;;;15.55;;
15240;SDS011;7723;52.170;9.978;2023-04-23T04:35:57;25.10;;;16.00;;
15240;SDS011;7723;52.170;9.978;2023-04-23T04:38:24;27.92;;;16.95;;
15240;SDS011;7723;52.170;9.978;2023-04-23T04:40:53;26.98;;;15.60;;
15240;SDS011;7723;52.170;9.978;2023-04-23T04:43:23;25.98;;;17.10;;
15240;SDS011;7723;52.170;9.978;2023-04-23T04:45:50;27.90;;;16.17;;
15240;SDS011;7723;52.170;9.978;2023-04-23T04:48:17;25.52;;;16.45;;
15240;SDS011;7723;52.170;9.978;2023-04-23T04:50:46;27.30;;;16.92;;
15240;SDS011;7723;52.170;9.978;2023-04-23T04:53:13;27.33;;;16.73;;
15240;SDS011;7723;52.170;9.978;2023-04-23T04:55:40;28.92;;;17.70;;
15240;SDS011;7723;52.170;9.978;2023-04-23T04:58:07;31.98;;;18.92;;
15240;SDS011;7723;52.170;9.978;2023-04-23T05:00:35;28.17;;;16.52;;
15240;SDS011;7723;52.170;9.978;2023-04-23T05:03:02;28.73;;;17.73;;
15240;SDS011;7723;52.170;9.978;2023-04-23T05:05:30;28.42;;;17.75;;
15240;SDS011;7723;52.170;9.978;2023-04-23T05:07:59;28.20;;;17.38;;
15240;SDS011;7723;52.170;9.978;2023-04-23T05:10:27;30.95;;;17.52;;
15240;SDS011;7723;52.170;9.978;2023-04-23T05:12:55;26.48;;;16.92;;
15240;SDS011;7723;52.170;9.978;2023-04-23T05:15:22;27.05;;;16.65;;
15240;SDS011;7723;52.170;9.978;2023-04-23T05:17:49;31.10;;;17.25;;
15240;SDS011;7723;52.170;9.978;2023-04-23T05:20:17;26.20;;;16.33;;
15240;SDS011;7723;52.170;9.978;2023-04-23T05:22:45;25.98;;;16.40;;
15240;SDS011;7723;52.170;9.978;2023-04-23T05:25:14;26.85;;;16.83;;
15240;SDS011;7723;52.170;9.978;2023-04-23T05:27:41;27.98;;;16.83;;
15240;SDS011;7723;52.170;9.978;2023-04-23T05:30:08;27.30;;;17.83;;
15240;SDS011;7723;52.170;9.978;2023-04-23T05:32:36;25.40;;;17.50;;
15240;SDS011;7723;52.170;9.978;2023-04-23T05:35:04;26.70;;;16.25;;
15240;SDS011;7723;52.170;9.978;2023-04-23T05:37:31;25.48;;;15.65;;
15240;SDS011;7723;52.170;9.978;2023-04-23T05:39:58;25.58;;;16.25;;
15240;SDS011;7723;52.170;9.978;2023-04-23T05:42:28;27.23;;;16.50;;
15240;SDS011;7723;52.170;9.978;2023-04-23T05:44:55;25.13;;;16.40;;
15240;SDS011;7723;52.170;9.978;2023-04-23T05:47:22;29.85;;;16.63;;
15240;SDS011;7723;52.170;9.978;2023-04-23T05:49:49;23.90;;;14.63;;
15240;SDS011;7723;52.170;9.978;2023-04-23T05:52:16;27.33;;;16.38;;
15240;SDS011;7723;52.170;9.978;2023-04-23T05:54:44;25.13;;;15.63;;
15240;SDS011;7723;52.170;9.978;2023-04-23T05:57:11;25.92;;;16.92;;
15240;SDS011;7723;52.170;9.978;2023-04-23T05:59:39;26.20;;;17.25;;
15240;SDS011;7723;52.170;9.978;2023-04-23T06:02:06;29.35;;;18.35;;
15240;SDS011;7723;52.170;9.978;2023-04-23T06:04:34;28.27;;;17.15;;
15240;SDS011;7723;52.170;9.978;2023-04-23T06:07:02;28.65;;;18.30;;
15240;SDS011;7723;52.170;9.978;2023-04-23T06:09:29;27.48;;;16.73;;
15240;SDS011;7723;52.170;9.978;2023-04-23T06:11:56;30.80;;;17.85;;
15240;SDS011;7723;52.170;9.978;2023-04-23T06:14:23;27.20;;;16.30;;
15240;SDS011;7723;52.170;9.978;2023-04-23T06:16:52;30.85;;;18.17;;
15240;SDS011;7723;52.170;9.978;2023-04-23T06:19:19;27.67;;;16.60;;
15240;SDS011;7723;52.170;9.978;2023-04-23T06:21:46;28.38;;;17.17;;
15240;SDS011;7723;52.170;9.978;2023-04-23T06:24:13;27.92;;;17.05;;
15240;SDS011;7723;52.170;9.978;2023-04-23T06:26:40;24.48;;;16.10;;
15240;SDS011;7723;52.170;9.978;2023-04-23T06:29:07;26.48;;;16.65;;
15240;SDS011;7723;52.170;9.978;2023-04-23T06:31:34;25.60;;;17.30;;
15240;SDS011;7723;52.170;9.978;2023-04-23T06:34:03;27.58;;;17.55;;
15240;SDS011;7723;52.170;9.978;2023-04-23T06:36:30;27.13;;;17.67;;
15240;SDS011;7723;52.170;9.978;2023-04-23T06:38:57;26.08;;;17.05;;
15240;SDS011;7723;52.170;9.978;2023-04-23T06:41:24;25.80;;;16.48;;
15240;SDS011;7723;52.170;9.978;2023-04-23T06:43:52;28.08;;;17.40;;
15240;SDS011;7723;52.170;9.978;2023-04-23T06:46:19;27.63;;;17.95;;
15240;SDS011;7723;52.170;9.978;2023-04-23T06:48:46;26.38;;;16.90;;
15240;SDS011;7723;52.170;9.978;2023-04-23T06:51:15;27.30;;;16.90;;
15240;SDS011;7723;52.170;9.978;2023-04-23T06:53:42;29.60;;;19.75;;
15240;SDS011;7723;52.170;9.978;2023-04-23T06:56:09;28.35;;;18.08;;
15240;SDS011;7723;52.170;9.978;2023-04-23T06:58:36;25.77;;;15.30;;
15240;SDS011;7723;52.170;9.978;2023-04-23T07:01:03;25.98;;;15.90;;
15240;SDS011;7723;52.170;9.978;2023-04-23T07:03:31;22.15;;;15.23;;
15240;SDS011;7723;52.170;9.978;2023-04-23T07:05:58;24.77;;;16.23;;
15240;SDS011;7723;52.170;9.978;2023-04-23T07:08:27;23.48;;;15.52;;
15240;SDS011;7723;52.170;9.978;2023-04-23T07:10:54;23.88;;;15.18;;
15240;SDS011;7723;52.170;9.978;2023-04-23T07:13:22;22.02;;;14.55;;
15240;SDS011;7723;52.170;9.978;2023-04-23T07:15:49;23.48;;;15.27;;
15240;SDS011;7723;52.170;9.978;2023-04-23T07:18:16;22.52;;;14.90;;
15240;SDS011;7723;52.170;9.978;2023-04-23T07:20:44;21.58;;;13.35;;
15240;SDS011;7723;52.170;9.978;2023-04-23T07:23:11;22.30;;;14.35;;
15240;SDS011;7723;52.170;9.978;2023-04-23T07:25:39;20.35;;;13.70;;
15240;SDS011;7723;52.170;9.978;2023-04-23T07:28:06;21.70;;;14.38;;
15240;SDS011;7723;52.170;9.978;2023-04-23T07:30:33;20.13;;;12.77;;
15240;SDS011;7723;52.170;9.978;2023-04-23T07:33:00;19.13;;;13.30;;
15240;SDS011;7723;52.170;9.978;2023-04-23T07:35:27;18.05;;;13.52;;
15240;SDS011;7723;52.170;9.978;2023-04-23T07:37:54;17.30;;;11.23;;
15240;SDS011;7723;52.170;9.978;2023-04-23T07:40:22;18.38;;;12.55;;
15240;SDS011;7723;52.170;9.978;2023-04-23T07:42:51;16.10;;;11.70;;
15240;SDS011;7723;52.170;9.978;2023-04-23T07:45:18;18.45;;;13.05;;
15240;SDS011;7723;52.170;9.978;2023-04-23T07:47:46;17.48;;;12.32;;
15240;SDS011;7723;52.170;9.978;2023-04-23T07:50:15;20.77;;;12.82;;
15240;SDS011;7723;52.170;9.978;2023-04-23T07:52:42;19.48;;;13.43;;
15240;SDS011;7723;52.170;9.978;2023-04-23T07:55:09;16.33;;;11.93;;
15240;SDS011;7723;52.170;9.978;2023-04-23T07:57:36;18.83;;;12.55;;
15240;SDS011;7723;52.170;9.978;2023-04-23T08:00:05;17.40;;;13.45;;
15240;SDS011;7723;52.170;9.978;2023-04-23T08:02:35;17.75;;;13.57;;
15240;SDS011;7723;52.170;9.978;2023-04-23T08:05:02;17.40;;;12.88;;
15240;SDS011;7723;52.170;9.978;2023-04-23T08:07:30;17.67;;;12.77;;
15240;SDS011;7723;52.170;9.978;2023-04-23T08:09:57;19.05;;;13.88;;
15240;SDS011;7723;52.170;9.978;2023-04-23T08:12:28;16.83;;;12.55;;
15240;SDS011;7723;52.170;9.978;2023-04-23T08:14:55;16.20;;;12.15;;
15240;SDS011;7723;52.170;9.978;2023-04-23T08:17:24;16.48;;;11.60;;
15240;SDS011;7723;52.170;9.978;2023-04-23T08:19:51;14.35;;;11.38;;
15240;SDS011;7723;52.170;9.978;2023-04-23T08:22:18;13.90;;;10.80;;
15240;SDS011;7723;52.170;9.978;2023-04-23T08:24:45;12.43;;;8.60;;
15240;SDS011;7723;52.170;9.978;2023-04-23T08:27:13;11.57;;;9.50;;
15240;SDS011;7723;52.170;9.978;2023-04-23T08:29:40;11.43;;;9.45;;
15240;SDS011;7723;52.170;9.978;2023-04-23T08:32:07;12.85;;;9.35;;
15240;SDS011;7723;52.170;9.978;2023-04-23T08:34:36;14.85;;;10.77;;
15240;SDS011;7723;52.170;9.978;2023-04-23T08:37:03;12.85;;;9.85;;
15240;SDS011;7723;52.170;9.978;2023-04-23T08:39:31;10.88;;;8.27;;
15240;SDS011;7723;52.170;9.978;2023-04-23T08:42:01;10.25;;;8.50;;
15240;SDS011;7723;52.170;9.978;2023-04-23T08:44:34;8.48;;;6.90;;
15240;SDS011;7723;52.170;9.978;2023-04-23T08:47:03;10.20;;;7.18;;
15240;SDS011;7723;52.170;9.978;2023-04-23T08:49:32;8.13;;;6.22;;
15240;SDS011;7723;52.170;9.978;2023-04-23T08:52:02;8.68;;;6.35;;
15240;SDS011;7723;52.170;9.978;2023-04-23T08:54:38;9.55;;;7.05;;
15240;SDS011;7723;52.170;9.978;2023-04-23T08:57:10;8.35;;;6.60;;
15240;SDS011;7723;52.170;9.978;2023-04-23T08:59:39;8.18;;;7.20;;
15240;SDS011;7723;52.170;9.978;2023-04-23T09:02:06;10.13;;;6.65;;
15240;SDS011;7723;52.170;9.978;2023-04-23T09:04:34;7.80;;;6.20;;
15240;SDS011;7723;52.170;9.978;2023-04-23T09:07:05;9.85;;;6.70;;
15240;SDS011;7723;52.170;9.978;2023-04-23T09:09:35;8.65;;;6.10;;
15240;SDS011;7723;52.170;9.978;2023-04-23T09:12:04;7.43;;;5.90;;
15240;SDS011;7723;52.170;9.978;2023-04-23T09:14:32;10.50;;;6.90;;
15240;SDS011;7723;52.170;9.978;2023-04-23T09:16:59;7.93;;;6.38;;
15240;SDS011;7723;52.170;9.978;2023-04-23T09:19:28;6.57;;;5.45;;
15240;SDS011;7723;52.170;9.978;2023-04-23T09:21:56;8.02;;;6.03;;
15240;SDS011;7723;52.170;9.978;2023-04-23T09:24:26;7.35;;;5.93;;
15240;SDS011;7723;52.170;9.978;2023-04-23T09:26:55;6.38;;;5.55;;
15240;SDS011;7723;52.170;9.978;2023-04-23T09:29:23;5.63;;;5.00;;
15240;SDS011;7723;52.170;9.978;2023-04-23T09:31:51;5.82;;;4.82;;
15240;SDS011;7723;52.170;9.978;2023-04-23T09:34:20;6.53;;;4.72;;
15240;SDS011;7723;52.170;9.978;2023-04-23T09:36:50;5.53;;;4.78;;
15240;SDS011;7723;52.170;9.978;2023-04-23T09:39:18;5.43;;;4.45;;
15240;SDS011;7723;52.170;9.978;2023-04-23T09:41:48;6.88;;;5.22;;
15240;SDS011;7723;52.170;9.978;2023-04-23T09:44:17;7.50;;;5.40;;
15240;SDS011;7723;52.170;9.978;2023-04-23T09:46:46;6.80;;;5.95;;
15240;SDS011;7723;52.170;9.978;2023-04-23T09:49:14;6.13;;;5.53;;
15240;SDS011;7723;52.170;9.978;2023-04-23T09:51:42;6.30;;;5.70;;
15240;SDS011;7723;52.170;9.978;2023-04-23T09:54:10;7.15;;;5.38;;
15240;SDS011;7723;52.170;9.978;2023-04-23T09:56:38;7.82;;;5.07;;
15240;SDS011;7723;52.170;9.978;2023-04-23T09:59:19;5.57;;;4.82;;
15240;SDS011;7723;52.170;9.978;2023-04-23T10:01:47;5.28;;;4.78;;
15240;SDS011;7723;52.170;9.978;2023-04-23T10:04:16;5.57;;;4.90;;
15240;SDS011;7723;52.170;9.978;2023-04-23T10:06:45;4.68;;;4.20;;
15240;SDS011;7723;52.170;9.978;2023-04-23T10:09:12;4.15;;;3.50;;
15240;SDS011;7723;52.170;9.978;2023-04-23T10:11:40;5.32;;;4.13;;
15240;SDS011;7723;52.170;9.978;2023-04-23T10:14:08;5.70;;;3.92;;
15240;SDS011;7723;52.170;9.978;2023-04-23T10:16:37;5.88;;;4.20;;
15240;SDS011;7723;52.170;9.978;2023-04-23T10:19:06;4.50;;;4.10;;
15240;SDS011;7723;52.170;9.978;2023-04-23T10:21:37;4.15;;;3.75;;
15240;SDS011;7723;52.170;9.978;2023-04-23T10:24:06;4.35;;;3.95;;
15240;SDS011;7723;52.170;9.978;2023-04-23T10:26:36;5.20;;;4.20;;
15240;SDS011;7723;52.170;9.978;2023-04-23T10:29:04;4.00;;;3.60;;
15240;SDS011;7723;52.170;9.978;2023-04-23T10:31:34;6.60;;;4.30;;
15240;SDS011;7723;52.170;9.978;2023-04-23T10:34:04;4.45;;;3.80;;
15240;SDS011;7723;52.170;9.978;2023-04-23T10:36:32;4.70;;;3.58;;
15240;SDS011;7723;52.170;9.978;2023-04-23T10:38:59;3.92;;;3.53;;
15240;SDS011;7723;52.170;9.978;2023-04-23T10:41:33;6.70;;;4.80;;
15240;SDS011;7723;52.170;9.978;2023-04-23T10:44:02;4.85;;;4.18;;
15240;SDS011;7723;52.170;9.978;2023-04-23T10:46:31;5.80;;;4.15;;
15240;SDS011;7723;52.170;9.978;2023-04-23T10:49:09;4.95;;;4.05;;
15240;SDS011;7723;52.170;9.978;2023-04-23T10:51:38;5.10;;;3.45;;
15240;SDS011;7723;52.170;9.978;2023-04-23T10:54:08;4.03;;;3.20;;
15240;SDS011;7723;52.170;9.978;2023-04-23T10:56:39;4.85;;;3.97;;
15240;SDS011;7723;52.170;9.978;2023-04-23T10:59:06;3.78;;;3.38;;
15240;SDS011;7723;52.170;9.978;2023-04-23T11:01:34;5.20;;;4.30;;
15240;SDS011;7723;52.170;9.978;2023-04-23T11:06:57;5.55;;;3.63;;
15240;SDS011;7723;52.170;9.978;2023-04-23T11:09:31;3.60;;;3.20;;
15240;SDS011;7723;52.170;9.978;2023-04-23T11:12:05;4.40;;;3.65;;
15240;SDS011;7723;52.170;9.978;2023-04-23T11:14:34;4.93;;;3.42;;
15240;SDS011;7723;52.170;9.978;2023-04-23T11:17:02;5.47;;;3.40;;
15240;SDS011;7723;52.170;9.978;2023-04-23T11:19:35;3.47;;;3.17;;
15240;SDS011;7723;52.170;9.978;2023-04-23T11:22:03;4.32;;;3.75;;
15240;SDS011;7723;52.170;9.978;2023-04-23T11:24:32;3.33;;;2.90;;
15240;SDS011;7723;52.170;9.978;2023-04-23T11:27:06;4.13;;;2.83;;
15240;SDS011;7723;52.170;9.978;2023-04-23T11:29:35;4.03;;;3.15;;
15240;SDS011;7723;52.170;9.978;2023-04-23T11:32:03;4.15;;;3.22;;
15240;SDS011;7723;52.170;9.978;2023-04-23T11:34:36;3.72;;;3.40;;
15240;SDS011;7723;52.170;9.978;2023-04-23T11:37:04;3.55;;;3.20;;
15240;SDS011;7723;52.170;9.978;2023-04-23T11:39:33;3.03;;;2.65;;
15240;SDS011;7723;52.170;9.978;2023-04-23T11:42:00;3.55;;;3.22;;
15240;SDS011;7723;52.170;9.978;2023-04-23T11:44:29;4.63;;;3.25;;
15240;SDS011;7723;52.170;9.978;2023-04-23T11:46:58;4.60;;;3.47;;
15240;SDS011;7723;52.170;9.978;2023-04-23T11:49:26;5.07;;;3.67;;
15240;SDS011;7723;52.170;9.978;2023-04-23T11:51:57;5.03;;;2.90;;
15240;SDS011;7723;52.170;9.978;2023-04-23T11:54:26;3.42;;;3.00;;
15240;SDS011;7723;52.170;9.978;2023-04-23T11:56:54;3.13;;;2.80;;
15240;SDS011;7723;52.170;9.978;2023-04-23T11:59:23;3.65;;;3.13;;
15240;SDS011;7723;52.170;9.978;2023-04-23T12:01:53;4.00;;;2.95;;
15240;SDS011;7723;52.170;9.978;2023-04-23T12:04:23;3.58;;;2.70;;
15240;SDS011;7723;52.170;9.978;2023-04-23T12:06:52;4.35;;;2.47;;
15240;SDS011;7723;52.170;9.978;2023-04-23T12:09:22;3.20;;;2.40;;
15240;SDS011;7723;52.170;9.978;2023-04-23T12:11:50;3.03;;;2.58;;
15240;SDS011;7723;52.170;9.978;2023-04-23T12:14:18;4.40;;;2.70;;
15240;SDS011;7723;52.170;9.978;2023-04-23T12:16:51;4.70;;;2.45;;
15240;SDS011;7723;52.170;9.978;2023-04-23T12:19:19;2.97;;;2.40;;
15240;SDS011;7723;52.170;9.978;2023-04-23T12:21:47;2.42;;;2.13;;
15240;SDS011;7723;52.170;9.978;2023-04-23T12:24:15;2.97;;;2.03;;
15240;SDS011;7723;52.170;9.978;2023-04-23T12:26:43;3.65;;;1.80;;
15240;SDS011;7723;52.170;9.978;2023-04-23T12:29:16;3.60;;;2.05;;
15240;SDS011;7723;52.170;9.978;2023-04-23T12:31:44;3.35;;;2.40;;
15240;SDS011;7723;52.170;9.978;2023-04-23T12:34:11;4.53;;;3.05;;
15240;SDS011;7723;52.170;9.978;2023-04-23T12:36:43;2.83;;;1.73;;
15240;SDS011;7723;52.170;9.978;2023-04-23T12:39:18;3.25;;;1.45;;
15240;SDS011;7723;52.170;9.978;2023-04-23T12:41:48;2.13;;;1.70;;
15240;SDS011;7723;52.170;9.978;2023-04-23T12:44:16;2.05;;;1.40;;
15240;SDS011;7723;52.170;9.978;2023-04-23T12:46:44;1.55;;;1.45;;
15240;SDS011;7723;52.170;9.978;2023-04-23T12:49:11;4.00;;;1.35;;
15240;SDS011;7723;52.170;9.978;2023-04-23T12:51:38;1.40;;;1.00;;
15240;SDS011;7723;52.170;9.978;2023-04-23T12:54:05;0.95;;;0.82;;
15240;SDS011;7723;52.170;9.978;2023-04-23T12:56:32;3.83;;;1.42;;
15240;SDS011;7723;52.170;9.978;2023-04-23T12:59:02;2.13;;;1.40;;
15240;SDS011;7723;52.170;9.978;2023-04-23T13:01:29;2.20;;;1.30;;
15240;SDS011;7723;52.170;9.978;2023-04-23T13:03:57;5.22;;;3.75;;
15240;SDS011;7723;52.170;9.978;2023-04-23T13:06:25;2.70;;;1.30;;
15240;SDS011;7723;52.170;9.978;2023-04-23T13:08:53;2.35;;;1.10;;
15240;SDS011;7723;52.170;9.978;2023-04-23T13:11:21;1.00;;;0.90;;
15240;SDS011;7723;52.170;9.978;2023-04-23T13:13:48;1.30;;;1.20;;
15240;SDS011;7723;52.170;9.978;2023-04-23T13:16:17;1.30;;;0.98;;
15240;SDS011;7723;52.170;9.978;2023-04-23T13:18:44;3.88;;;1.60;;
15240;SDS011;7723;52.170;9.978;2023-04-23T13:21:12;1.35;;;1.25;;
15240;SDS011;7723;52.170;9.978;2023-04-23T13:23:39;1.13;;;1.00;;
15240;SDS011;7723;52.170;9.978;2023-04-23T13:26:06;1.85;;;1.20;;
15240;SDS011;7723;52.170;9.978;2023-04-23T13:28:34;1.10;;;1.00;;
15240;SDS011;7723;52.170;9.978;2023-04-23T13:31:01;1.70;;;1.35;;
15240;SDS011;7723;52.170;9.978;2023-04-23T13:33:30;1.30;;;0.98;;
15240;SDS011;7723;52.170;9.978;2023-04-23T13:35:59;2.00;;;1.10;;
15240;SDS011;7723;52.170;9.978;2023-04-23T13:38:27;1.40;;;1.23;;
15240;SDS011;7723;52.170;9.978;2023-04-23T13:40:55;1.15;;;0.98;;
15240;SDS011;7723;52.170;9.978;2023-04-23T13:43:23;1.75;;;1.38;;
15240;SDS011;7723;52.170;9.978;2023-04-23T13:45:50;1.38;;;1.27;;
15240;SDS011;7723;52.170;9.978;2023-04-23T13:48:19;2.35;;;1.30;;
15240;SDS011;7723;52.170;9.978;2023-04-23T13:50:48;4.20;;;2.60;;
15240;SDS011;7723;52.170;9.978;2023-04-23T13:53:15;2.63;;;1.67;;
15240;SDS011;7723;52.170;9.978;2023-04-23T13:55:42;3.63;;;1.77;;
15240;SDS011;7723;52.170;9.978;2023-04-23T13:58:09;2.45;;;1.60;;
15240;SDS011;7723;52.170;9.978;2023-04-23T14:00:37;1.83;;;1.50;;
15240;SDS011;7723;52.170;9.978;2023-04-23T14:03:04;2.10;;;1.67;;
15240;SDS011;7723;52.170;9.978;2023-04-23T14:05:31;4.65;;;2.17;;
15240;SDS011;7723;52.170;9.978;2023-04-23T14:08:00;1.90;;;1.70;;
15240;SDS011;7723;52.170;9.978;2023-04-23T14:10:27;3.22;;;1.77;;
15240;SDS011;7723;52.170;9.978;2023-04-23T14:12:55;4.20;;;1.80;;
15240;SDS011;7723;52.170;9.978;2023-04-23T14:15:22;2.58;;;2.17;;
15240;SDS011;7723;52.170;9.978;2023-04-23T14:17:49;2.00;;;1.83;;
15240;SDS011;7723;52.170;9.978;2023-04-23T14:20:17;3.42;;;1.88;;
15240;SDS011;7723;52.170;9.978;2023-04-23T14:22:47;2.78;;;1.80;;
15240;SDS011;7723;52.170;9.978;2023-04-23T14:25:22;1.95;;;1.77;;
15240;SDS011;7723;52.170;9.978;2023-04-23T14:27:50;2.17;;;1.98;;
15240;SDS011;7723;52.170;9.978;2023-04-23T14:30:22;2.83;;;2.10;;
15240;SDS011;7723;52.170;9.978;2023-04-23T14:32:52;1.95;;;1.50;;
15240;SDS011;7723;52.170;9.978;2023-04-23T14:35:20;3.08;;;1.55;;
15240;SDS011;7723;52.170;9.978;2023-04-23T14:37:49;1.50;;;1.40;;
15240;SDS011;7723;52.170;9.978;2023-04-23T14:40:17;2.50;;;1.52;;
15240;SDS011;7723;52.170;9.978;2023-04-23T14:42:49;1.45;;;1.35;;
15240;SDS011;7723;52.170;9.978;2023-04-23T14:45:16;1.55;;;1.27;;
15240;SDS011;7723;52.170;9.978;2023-04-23T14:47:44;1.35;;;1.10;;
15240;SDS011;7723;52.170;9.978;2023-04-23T14:50:14;1.73;;;1.58;;
15240;SDS011;7723;52.170;9.978;2023-04-23T14:52:43;2.25;;;1.25;;
15240;SDS011;7723;52.170;9.978;2023-04-23T14:55:13;1.60;;;1.35;;
15240;SDS011;7723;52.170;9.978;2023-04-23T14:57:40;1.58;;;1.48;;